createdAt,value
2023-03-11T00:01:47.822Z,11.47
2023-03-11T00:04:15.733Z,12.13
2023-03-11T00:06:43.768Z,11.33
2023-03-11T00:09:11.665Z,11.63
2023-03-11T00:11:39.671Z,11.13
2023-03-11T00:14:09.017Z,11.03
2023-03-11T00:16:37.041Z,9.80
2023-03-11T00:19:04.869Z,13.23
2023-03-11T00:21:32.777Z,10.90
2023-03-11T00:24:03.705Z,9.33
2023-03-11T00:26:31.576Z,8.77
2023-03-11T00:28:59.614Z,12.23
2023-03-11T00:31:28.937Z,10.70
2023-03-11T00:33:57.328Z,9.50
2023-03-11T00:36:31.545Z,9.83
2023-03-11T00:38:59.991Z,8.73
2023-03-11T00:41:27.855Z,7.80
2023-03-11T00:43:55.854Z,8.10
2023-03-11T00:46:23.784Z,10.03
2023-03-11T00:48:53.326Z,8.53
2023-03-11T00:51:21.193Z,8.90
2023-03-11T00:53:49.254Z,8.93
2023-03-11T00:56:17.843Z,8.77
2023-03-11T00:58:46.204Z,9.03
2023-03-11T01:01:17.373Z,7.60
2023-03-11T01:03:46.117Z,7.40
2023-03-11T01:06:15.498Z,8.80
2023-03-11T01:08:43.433Z,7.60
2023-03-11T01:11:11.391Z,7.00
2023-03-11T01:13:40.356Z,7.20
2023-03-11T01:16:09.380Z,8.10
2023-03-11T01:18:37.468Z,7.03
2023-03-11T01:21:05.984Z,9.40
2023-03-11T01:23:35.192Z,7.00
2023-03-11T01:26:03.051Z,8.10
2023-03-11T01:28:31.045Z,7.10
2023-03-11T01:30:58.929Z,7.13
2023-03-11T01:33:26.776Z,8.47
2023-03-11T01:35:54.802Z,10.00
2023-03-11T01:38:22.748Z,8.87
2023-03-11T01:40:53.230Z,10.63
2023-03-11T01:43:47.736Z,7.90
2023-03-11T01:46:18.415Z,7.23
2023-03-11T01:48:48.819Z,7.67
2023-03-11T01:51:20.483Z,6.57
2023-03-11T01:53:48.579Z,6.73
2023-03-11T01:56:18.185Z,6.47
2023-03-11T01:58:50.158Z,7.23
2023-03-11T02:01:18.294Z,7.00
2023-03-11T02:03:46.345Z,5.17
2023-03-11T02:06:17.738Z,6.23
2023-03-11T02:08:46.968Z,6.33
2023-03-11T02:11:20.592Z,6.57
2023-03-11T02:13:50.164Z,6.03
2023-03-11T02:16:18.494Z,7.43
2023-03-11T02:18:46.513Z,4.97
2023-03-11T02:21:25.202Z,6.73
2023-03-11T02:24:01.080Z,5.83
2023-03-11T02:26:35.994Z,5.00
2023-03-11T02:29:07.677Z,6.83
2023-03-11T02:31:38.420Z,7.03
2023-03-11T02:34:09.802Z,7.63
2023-03-11T02:36:40.328Z,8.60
2023-03-11T02:39:09.765Z,6.47
2023-03-11T02:41:40.189Z,4.40
2023-03-11T02:44:12.110Z,6.10
2023-03-11T02:46:43.432Z,6.70
2023-03-11T02:49:12.140Z,6.00
2023-03-11T02:51:39.976Z,4.57
2023-03-11T02:54:08.135Z,7.30
2023-03-11T02:56:35.943Z,5.27
2023-03-11T02:59:03.781Z,5.93
2023-03-11T03:01:33.158Z,4.10
2023-03-11T03:04:01.037Z,4.27
2023-03-11T03:06:29.340Z,4.60
2023-03-11T03:08:57.605Z,4.97
2023-03-11T03:11:25.456Z,4.67
2023-03-11T03:13:53.293Z,3.53
2023-03-11T03:16:21.938Z,4.87
2023-03-11T03:18:51.636Z,4.47
2023-03-11T03:21:19.519Z,4.27
2023-03-11T03:23:47.764Z,4.57
2023-03-11T03:26:15.660Z,4.87
2023-03-11T03:28:43.528Z,4.43
2023-03-11T03:31:12.461Z,5.10
2023-03-11T03:33:40.352Z,4.90
2023-03-11T03:36:12.087Z,5.13
2023-03-11T03:38:40.526Z,4.70
2023-03-11T03:41:08.406Z,5.60
2023-03-11T03:43:36.244Z,5.70
2023-03-11T03:46:05.720Z,4.80
2023-03-11T03:48:33.945Z,4.03
2023-03-11T03:51:05.528Z,3.70
2023-03-11T03:53:37.150Z,4.17
2023-03-11T03:56:06.035Z,3.77
2023-03-11T03:58:34.044Z,3.10
2023-03-11T04:01:02.096Z,4.50
2023-03-11T04:03:30.182Z,5.50
2023-03-11T04:06:07.603Z,4.00
2023-03-11T04:08:37.205Z,6.10
2023-03-11T04:11:05.476Z,4.37
2023-03-11T04:13:33.644Z,2.90
2023-03-11T04:16:03.810Z,3.70
2023-03-11T04:18:31.704Z,4.93
2023-03-11T04:20:59.753Z,3.50
2023-03-11T04:23:27.603Z,3.00
2023-03-11T04:25:56.995Z,6.93
2023-03-11T04:28:25.002Z,7.17
2023-03-11T04:30:53.004Z,3.07
2023-03-11T04:33:21.424Z,4.23
2023-03-11T04:35:49.441Z,4.17
2023-03-11T04:38:17.452Z,5.23
2023-03-11T04:40:45.359Z,5.70
2023-03-11T04:43:14.636Z,4.33
2023-03-11T04:45:43.476Z,4.20
2023-03-11T04:48:11.385Z,5.03
2023-03-11T04:50:39.344Z,3.80
2023-03-11T04:53:07.191Z,4.73
2023-03-11T04:55:35.023Z,4.20
2023-03-11T04:58:02.995Z,5.40
2023-03-11T05:00:32.205Z,4.13
2023-03-11T05:03:00.104Z,3.70
2023-03-11T05:05:28.175Z,3.17
2023-03-11T05:07:56.039Z,3.03
2023-03-11T05:10:23.967Z,4.50
2023-03-11T05:12:52.399Z,4.30
2023-03-11T05:15:20.638Z,2.63
2023-03-11T05:17:49.907Z,4.33
2023-03-11T05:20:18.261Z,3.97
2023-03-11T05:22:46.242Z,4.03
2023-03-11T05:25:14.180Z,3.87
2023-03-11T05:27:42.079Z,3.93
2023-03-11T05:30:11.189Z,3.73
2023-03-11T05:32:39.206Z,2.90
2023-03-11T05:35:09.722Z,4.17
2023-03-11T05:37:39.256Z,4.07
2023-03-11T05:40:08.599Z,4.87
2023-03-11T05:42:36.631Z,2.97
2023-03-11T05:45:05.008Z,6.60
2023-03-11T05:47:32.950Z,3.50
2023-03-11T05:50:01.020Z,2.03
2023-03-11T05:52:32.738Z,3.93
2023-03-11T05:55:00.714Z,2.60
2023-03-11T05:57:28.650Z,4.53
2023-03-11T05:59:56.493Z,3.17
2023-03-11T06:02:24.524Z,3.27
2023-03-11T06:04:52.642Z,3.37
2023-03-11T06:07:20.512Z,3.83
2023-03-11T06:09:51.107Z,3.10
2023-03-11T06:12:19.251Z,4.70
2023-03-11T06:14:47.344Z,3.50
2023-03-11T06:17:15.232Z,2.70
2023-03-11T06:19:43.216Z,2.20
2023-03-11T06:22:11.049Z,2.67
2023-03-11T06:24:39.040Z,2.97
2023-03-11T06:27:09.397Z,4.23
2023-03-11T06:29:37.235Z,4.47
2023-03-11T06:32:05.389Z,2.77
2023-03-11T06:34:33.375Z,5.47
2023-03-11T06:37:01.311Z,2.33
2023-03-11T06:39:29.335Z,2.30
2023-03-11T06:41:57.224Z,2.47
2023-03-11T06:44:26.535Z,2.53
2023-03-11T06:46:57.609Z,2.67
2023-03-11T06:49:25.593Z,3.43
2023-03-11T06:51:53.532Z,2.70
2023-03-11T06:54:21.444Z,4.33
2023-03-11T06:56:49.496Z,2.87
2023-03-11T06:59:17.359Z,2.20
2023-03-11T07:01:46.900Z,2.57
2023-03-11T07:04:14.934Z,2.30
2023-03-11T07:06:43.351Z,3.00
2023-03-11T07:09:11.283Z,2.37
2023-03-11T07:11:39.323Z,2.97
2023-03-11T07:14:07.260Z,3.67
2023-03-11T07:16:35.353Z,4.17
2023-03-11T07:19:04.727Z,3.30
2023-03-11T07:21:34.025Z,3.60
2023-03-11T07:24:03.656Z,3.30
2023-03-11T07:26:33.356Z,3.27
2023-03-11T07:29:01.914Z,3.07
2023-03-11T07:31:31.383Z,3.10
2023-03-11T07:34:00.576Z,2.63
2023-03-11T07:36:30.550Z,3.97
2023-03-11T07:39:04.223Z,2.87
2023-03-11T07:41:34.270Z,3.37
2023-03-11T07:44:03.741Z,4.93
2023-03-11T07:46:32.307Z,2.90
2023-03-11T07:49:01.647Z,4.77
2023-03-11T07:51:33.093Z,3.00
2023-03-11T07:54:02.032Z,4.47
2023-03-11T07:56:32.051Z,3.17
2023-03-11T07:59:01.671Z,3.17
2023-03-11T08:01:36.324Z,3.10
2023-03-11T08:04:06.172Z,4.43
2023-03-11T08:06:37.080Z,3.63
2023-03-11T08:09:07.267Z,3.93
2023-03-11T08:11:35.308Z,4.57
2023-03-11T08:14:03.662Z,6.30
2023-03-11T08:16:31.960Z,2.60
2023-03-11T08:18:59.841Z,2.57
2023-03-11T08:21:30.167Z,7.37
2023-03-11T08:24:01.193Z,4.93
2023-03-11T08:26:29.996Z,2.73
2023-03-11T08:28:58.547Z,2.70
2023-03-11T08:31:29.237Z,2.70
2023-03-11T08:33:59.496Z,3.70
2023-03-11T08:36:27.664Z,3.90
2023-03-11T08:38:55.769Z,3.10
2023-03-11T08:41:25.449Z,3.27
2023-03-11T08:43:53.715Z,4.80
2023-03-11T08:46:25.941Z,3.27
2023-03-11T08:48:54.524Z,2.70
2023-03-11T08:51:23.609Z,2.67
2023-03-11T08:53:52.060Z,3.07
2023-03-11T08:56:20.546Z,2.67
2023-03-11T08:58:50.968Z,2.53
2023-03-11T09:01:20.354Z,2.70
2023-03-11T09:03:48.592Z,3.07
2023-03-11T09:06:17.830Z,2.60
2023-03-11T09:08:47.256Z,3.03
2023-03-11T09:11:17.815Z,1.97
2023-03-11T09:13:45.668Z,2.30
2023-03-11T09:16:18.253Z,2.00
2023-03-11T09:18:46.292Z,3.07
2023-03-11T09:21:14.141Z,2.90
2023-03-11T09:23:44.342Z,3.20
2023-03-11T09:26:12.734Z,2.77
2023-03-11T09:28:41.490Z,3.27
2023-03-11T09:31:09.774Z,3.47
2023-03-11T09:33:40.927Z,4.17
2023-03-11T09:36:12.933Z,2.73
2023-03-11T09:38:40.728Z,4.07
2023-03-11T09:41:19.892Z,4.47
2023-03-11T09:43:59.084Z,3.50
2023-03-11T09:46:52.467Z,2.93
2023-03-11T09:49:29.632Z,5.10
2023-03-11T09:52:08.004Z,2.23
2023-03-11T09:54:39.485Z,3.47
2023-03-11T09:57:10.684Z,3.03
2023-03-11T09:59:43.683Z,2.03
2023-03-11T10:02:16.045Z,2.30
2023-03-11T10:04:53.745Z,4.27
2023-03-11T10:07:26.694Z,2.87
2023-03-11T10:09:56.765Z,3.37
2023-03-11T10:12:45.974Z,4.60
2023-03-11T10:15:23.336Z,2.50
2023-03-11T10:18:05.288Z,3.20
2023-03-11T10:20:43.559Z,3.57
2023-03-11T10:23:23.474Z,1.97
2023-03-11T10:26:01.753Z,4.97
2023-03-11T10:28:34.672Z,4.30
2023-03-11T10:31:08.428Z,3.40
2023-03-11T10:33:46.591Z,3.80
2023-03-11T10:36:24.010Z,5.60
2023-03-11T10:38:55.184Z,3.00
2023-03-11T10:41:28.183Z,3.40
2023-03-11T10:44:01.499Z,6.83
2023-03-11T10:46:30.714Z,4.07
2023-03-11T10:48:58.860Z,7.97
2023-03-11T10:51:33.800Z,4.17
2023-03-11T10:54:03.614Z,4.00
2023-03-11T10:56:34.523Z,2.43
2023-03-11T10:59:03.647Z,4.23
2023-03-11T11:01:31.932Z,3.77
2023-03-11T11:04:02.713Z,2.83
2023-03-11T11:06:33.619Z,3.13
2023-03-11T11:09:19.500Z,3.57
2023-03-11T11:12:02.748Z,4.47
2023-03-11T11:14:47.343Z,4.43
2023-03-11T11:17:19.304Z,2.63
2023-03-11T11:19:48.593Z,2.33
2023-03-11T11:22:20.868Z,2.67
2023-03-11T11:24:51.564Z,2.80
2023-03-11T11:27:22.192Z,3.50
2023-03-11T11:30:12.418Z,5.80
2023-03-11T11:32:40.549Z,2.30
2023-03-11T11:35:12.908Z,4.87
2023-03-11T11:37:45.256Z,2.23
2023-03-11T11:40:24.520Z,4.73
2023-03-11T11:42:56.918Z,2.37
2023-03-11T11:45:31.919Z,4.50
2023-03-11T11:48:04.339Z,3.10
2023-03-11T11:50:36.173Z,3.93
2023-03-11T11:53:16.301Z,3.40
2023-03-11T11:55:49.477Z,2.10
2023-03-11T11:58:17.823Z,2.30
2023-03-11T12:00:57.382Z,3.40
2023-03-11T12:03:50.168Z,3.53
2023-03-11T12:06:24.208Z,2.97
2023-03-11T12:09:05.670Z,3.57
2023-03-11T12:11:41.901Z,2.27
2023-03-11T12:14:18.791Z,2.57
2023-03-11T12:16:57.001Z,2.83
2023-03-11T12:19:36.961Z,3.17
2023-03-11T12:22:38.076Z,2.23
2023-03-11T12:25:37.618Z,3.47
2023-03-11T12:28:17.297Z,4.77
2023-03-11T12:30:50.499Z,3.67
2023-03-11T12:33:26.379Z,2.37
2023-03-11T12:35:56.606Z,2.13
2023-03-11T12:38:32.465Z,2.80
2023-03-11T12:41:07.634Z,2.13
2023-03-11T12:43:59.295Z,2.83
2023-03-11T12:47:01.886Z,2.03
2023-03-11T12:49:31.703Z,3.27
2023-03-11T12:52:04.745Z,6.70
2023-03-11T12:54:34.701Z,3.80
2023-03-11T12:57:09.420Z,3.07
2023-03-11T12:59:54.969Z,2.57
2023-03-11T13:02:36.471Z,3.63
2023-03-11T13:05:15.579Z,3.73
2023-03-11T13:07:49.325Z,3.43
2023-03-11T13:10:35.917Z,4.63
2023-03-11T13:13:24.340Z,4.13
2023-03-11T13:15:52.565Z,4.57
2023-03-11T13:18:24.757Z,1.80
2023-03-11T13:20:57.700Z,3.60
2023-03-11T13:23:31.481Z,4.50
2023-03-11T13:26:31.793Z,2.50
2023-03-11T13:29:42.674Z,2.80
2023-03-11T13:32:52.099Z,1.93
2023-03-11T13:35:34.929Z,2.17
2023-03-11T13:38:20.033Z,1.87
2023-03-11T13:40:48.305Z,1.50
2023-03-11T13:43:18.777Z,2.40
2023-03-11T13:45:54.364Z,2.17
2023-03-11T13:48:28.260Z,1.98
2023-03-11T13:51:01.383Z,1.73
2023-03-11T13:53:33.689Z,2.30
2023-03-11T13:56:01.770Z,3.05
2023-03-11T13:58:30.275Z,1.70
2023-03-11T14:01:01.039Z,2.40
2023-03-11T14:03:41.770Z,1.77
2023-03-11T14:06:14.485Z,2.85
2023-03-11T14:08:43.076Z,2.10
2023-03-11T14:11:18.730Z,1.85
2023-03-11T14:13:48.086Z,1.33
2023-03-11T14:16:20.960Z,4.05
2023-03-11T14:18:50.377Z,1.40
2023-03-11T14:21:20.823Z,1.80
2023-03-11T14:23:50.594Z,2.30
2023-03-11T14:26:21.302Z,1.45
2023-03-11T14:28:52.418Z,1.10
2023-03-11T14:31:33.013Z,1.13
2023-03-11T14:34:06.829Z,1.25
2023-03-11T14:36:44.732Z,1.38
2023-03-11T14:39:27.697Z,1.58
2023-03-11T14:41:58.995Z,2.45
2023-03-11T14:44:28.962Z,0.98
2023-03-11T14:47:08.048Z,1.00
2023-03-11T14:49:36.434Z,0.70
2023-03-11T14:52:11.369Z,0.68
2023-03-11T14:54:39.733Z,0.75
2023-03-11T14:57:16.932Z,0.98
2023-03-11T14:59:46.276Z,1.08
2023-03-11T15:02:43.643Z,0.93
2023-03-11T15:05:19.528Z,1.20
2023-03-11T15:07:48.823Z,1.42
2023-03-11T15:10:16.750Z,0.82
2023-03-11T15:12:45.929Z,0.52
2023-03-11T15:15:26.131Z,1.23
2023-03-11T15:17:56.572Z,0.52
2023-03-11T15:20:27.755Z,0.40
2023-03-11T15:23:01.268Z,1.58
2023-03-11T15:25:31.785Z,2.25
2023-03-11T15:27:59.920Z,0.65
2023-03-11T15:30:29.724Z,1.48
2023-03-11T15:33:02.520Z,1.20
2023-03-11T15:35:31.663Z,0.73
2023-03-11T15:38:21.162Z,1.70
2023-03-11T15:40:55.211Z,1.88
2023-03-11T15:43:27.880Z,2.22
2023-03-11T15:45:58.500Z,1.30
2023-03-11T15:48:30.050Z,1.37
2023-03-11T15:51:00.061Z,3.20
2023-03-11T15:53:29.459Z,2.00
2023-03-11T15:56:06.945Z,2.30
2023-03-11T15:58:36.845Z,3.00
2023-03-11T16:01:05.008Z,2.60
2023-03-11T16:03:34.527Z,1.00
2023-03-11T16:06:02.703Z,1.80
2023-03-11T16:08:30.873Z,1.50
2023-03-11T16:11:01.589Z,1.83
2023-03-11T16:13:29.844Z,1.67
2023-03-11T16:15:57.779Z,1.93
2023-03-11T16:18:30.474Z,2.30
2023-03-11T16:21:00.013Z,2.00
2023-03-11T16:23:44.813Z,3.10
2023-03-11T16:26:18.616Z,2.37
2023-03-11T16:28:46.480Z,2.00
2023-03-11T16:31:14.397Z,2.27
2023-03-11T16:33:42.677Z,1.77
2023-03-11T16:36:12.710Z,1.60
2023-03-11T16:38:46.125Z,2.33
2023-03-11T16:41:15.928Z,3.57
2023-03-11T16:43:44.523Z,2.53
2023-03-11T16:46:12.601Z,2.23
2023-03-11T16:48:40.489Z,4.43
2023-03-11T16:51:08.439Z,2.17
2023-03-11T16:53:37.920Z,2.90
2023-03-11T16:56:06.780Z,2.43
2023-03-11T16:58:34.598Z,3.67
2023-03-11T17:01:02.680Z,3.90
2023-03-11T17:03:37.706Z,2.87
2023-03-11T17:06:11.002Z,2.80
2023-03-11T17:08:40.207Z,1.97
2023-03-11T17:11:16.095Z,2.13
2023-03-11T17:13:43.986Z,2.60
2023-03-11T17:16:11.885Z,1.50
2023-03-11T17:18:39.915Z,2.80
2023-03-11T17:21:08.739Z,3.30
2023-03-11T17:23:37.098Z,1.77
2023-03-11T17:26:11.130Z,2.23
2023-03-11T17:28:40.157Z,2.53
2023-03-11T17:31:12.525Z,3.57
2023-03-11T17:33:40.512Z,2.13
2023-03-11T17:36:10.861Z,2.63
2023-03-11T17:38:38.859Z,2.77
2023-03-11T17:41:12.659Z,2.90
2023-03-11T17:43:41.835Z,4.73
2023-03-11T17:46:12.405Z,4.37
2023-03-11T17:48:40.296Z,2.97
2023-03-11T17:51:10.254Z,3.80
2023-03-11T17:53:39.026Z,4.10
2023-03-11T17:56:08.048Z,3.87
2023-03-11T17:58:37.445Z,4.80
2023-03-11T18:01:07.706Z,2.97
2023-03-11T18:03:35.969Z,3.03
2023-03-11T18:06:09.374Z,4.43
2023-03-11T18:08:38.144Z,4.27
2023-03-11T18:11:08.436Z,4.27
2023-03-11T18:13:39.051Z,4.70
2023-03-11T18:16:09.288Z,4.23
2023-03-11T18:18:38.156Z,3.13
2023-03-11T18:21:08.385Z,3.07
2023-03-11T18:23:36.548Z,3.77
2023-03-11T18:26:07.433Z,5.23
2023-03-11T18:28:37.441Z,6.20
2023-03-11T18:31:08.962Z,3.77
2023-03-11T18:33:37.592Z,3.53
2023-03-11T18:36:13.696Z,4.47
2023-03-11T18:38:41.725Z,3.47
2023-03-11T18:41:09.596Z,6.27
2023-03-11T18:43:39.459Z,2.47
2023-03-11T18:46:09.511Z,2.23
2023-03-11T18:48:37.936Z,2.97
2023-03-11T18:51:07.203Z,6.63
2023-03-11T18:53:35.636Z,6.50
2023-03-11T18:56:05.626Z,5.50
2023-03-11T18:58:34.531Z,4.10
2023-03-11T19:01:12.443Z,4.73
2023-03-11T19:03:40.588Z,6.07
2023-03-11T19:06:09.341Z,4.80
2023-03-11T19:08:37.306Z,4.10
2023-03-11T19:11:07.637Z,3.20
2023-03-11T19:13:46.179Z,4.80
2023-03-11T19:16:18.910Z,6.07
2023-03-11T19:18:47.541Z,5.37
2023-03-11T19:21:17.096Z,4.73
2023-03-11T19:23:45.763Z,3.83
2023-03-11T19:26:14.143Z,4.30
2023-03-11T19:28:42.096Z,6.13
2023-03-11T19:31:10.066Z,7.20
2023-03-11T19:33:39.490Z,4.10
2023-03-11T19:36:08.785Z,2.67
2023-03-11T19:38:37.046Z,4.47
2023-03-11T19:41:06.649Z,5.93
2023-03-11T19:43:35.625Z,6.90
2023-03-11T19:46:03.898Z,4.10
2023-03-11T19:48:32.200Z,5.90
2023-03-11T19:51:02.358Z,4.73
2023-03-11T19:53:30.527Z,6.67
2023-03-11T19:55:59.165Z,4.37
2023-03-11T19:58:30.438Z,6.80
2023-03-11T20:00:58.889Z,3.87
2023-03-11T20:03:27.430Z,3.00
2023-03-11T20:05:58.049Z,4.23
2023-03-11T20:08:27.781Z,2.50
2023-03-11T20:10:55.706Z,6.23
2023-03-11T20:13:23.916Z,4.40
2023-03-11T20:15:51.996Z,5.63
2023-03-11T20:18:20.039Z,4.77
2023-03-11T20:20:47.909Z,5.13
2023-03-11T20:23:16.364Z,4.83
2023-03-11T20:25:45.568Z,4.77
2023-03-11T20:28:13.540Z,4.50
2023-03-11T20:30:41.553Z,2.80
2023-03-11T20:33:09.473Z,2.97
2023-03-11T20:35:37.528Z,3.37
2023-03-11T20:38:05.770Z,4.83
2023-03-11T20:40:33.887Z,3.30
2023-03-11T20:43:03.443Z,2.67
2023-03-11T20:45:31.715Z,3.33
2023-03-11T20:47:59.704Z,3.40
2023-03-11T20:50:27.579Z,3.03
2023-03-11T20:52:55.585Z,4.20
2023-03-11T20:55:23.759Z,4.60
2023-03-11T20:57:51.720Z,4.07
2023-03-11T21:00:22.380Z,4.50
2023-03-11T21:02:50.717Z,4.00
2023-03-11T21:05:18.877Z,2.63
2023-03-11T21:07:49.265Z,3.60
2023-03-11T21:10:17.443Z,4.80
2023-03-11T21:12:45.401Z,4.37
2023-03-11T21:15:14.009Z,3.63
2023-03-11T21:17:43.318Z,5.27
2023-03-11T21:20:13.247Z,2.70
2023-03-11T21:22:41.241Z,4.80
2023-03-11T21:25:10.027Z,3.40
2023-03-11T21:27:38.017Z,5.03
2023-03-11T21:30:06.902Z,4.50
2023-03-11T21:32:34.923Z,4.67
2023-03-11T21:35:05.122Z,3.20
2023-03-11T21:37:33.419Z,4.43
2023-03-11T21:40:01.385Z,2.80
2023-03-11T21:42:30.557Z,3.63
2023-03-11T21:44:58.784Z,3.93
2023-03-11T21:47:26.699Z,3.83
2023-03-11T21:49:54.734Z,2.57
2023-03-11T21:52:24.270Z,1.90
2023-03-11T21:54:52.359Z,5.33
2023-03-11T21:57:20.295Z,8.70
2023-03-11T21:59:48.672Z,4.03
2023-03-11T22:02:18.186Z,1.87
2023-03-11T22:04:46.229Z,5.10
2023-03-11T22:07:14.522Z,3.30
2023-03-11T22:09:43.800Z,2.90
2023-03-11T22:12:11.690Z,2.20
2023-03-11T22:14:39.699Z,5.77
2023-03-11T22:17:07.891Z,2.80
2023-03-11T22:19:35.909Z,2.27
2023-03-11T22:22:04.060Z,3.10
2023-03-11T22:24:32.032Z,3.17
2023-03-11T22:27:01.307Z,2.53
2023-03-11T22:29:29.282Z,7.53
2023-03-11T22:31:57.275Z,2.37
2023-03-11T22:34:25.253Z,3.67
2023-03-11T22:36:53.278Z,2.67
2023-03-11T22:39:21.260Z,2.77
2023-03-11T22:41:49.175Z,2.77
2023-03-11T22:44:18.481Z,3.63
2023-03-11T22:46:46.489Z,2.80
2023-03-11T22:49:14.363Z,2.80
2023-03-11T22:51:42.368Z,5.80
2023-03-11T22:54:10.368Z,2.50
2023-03-11T22:56:38.387Z,2.60
2023-03-11T22:59:06.441Z,3.07
2023-03-11T23:01:36.054Z,2.47
2023-03-11T23:04:03.981Z,2.13
2023-03-11T23:06:31.936Z,3.50
2023-03-11T23:09:00.398Z,2.50
2023-03-11T23:11:28.245Z,1.83
2023-03-11T23:13:56.916Z,2.77
2023-03-11T23:16:26.357Z,4.20
2023-03-11T23:18:57.474Z,3.40
2023-03-11T23:21:27.082Z,2.20
2023-03-11T23:23:55.382Z,4.07
2023-03-11T23:26:23.831Z,3.70
2023-03-11T23:28:52.218Z,3.63
2023-03-11T23:31:21.901Z,5.10
2023-03-11T23:33:50.160Z,3.07
2023-03-11T23:36:21.309Z,3.30
2023-03-11T23:38:49.823Z,2.23
2023-03-11T23:41:19.760Z,2.17
2023-03-11T23:43:47.619Z,2.67
2023-03-11T23:46:15.720Z,2.07
2023-03-11T23:48:43.976Z,3.07
2023-03-11T23:51:11.837Z,1.67
2023-03-11T23:53:41.531Z,2.50
2023-03-11T23:56:11.718Z,2.00
2023-03-11T23:58:39.731Z,2.23
